createdAt,value
2019-05-22T00:02:37.561Z,99.90
2019-05-22T00:05:24.859Z,99.90
2019-05-22T00:07:55.593Z,99.90
2019-05-22T00:10:26.497Z,99.90
2019-05-22T00:12:57.714Z,99.90
2019-05-22T00:15:27.038Z,99.90
2019-05-22T00:17:57.554Z,99.90
2019-05-22T00:20:29.467Z,99.90
2019-05-22T00:23:00.174Z,99.90
2019-05-22T00:25:33.271Z,99.90
2019-05-22T00:28:03.019Z,99.90
2019-05-22T00:30:35.632Z,99.90
2019-05-22T00:33:05.741Z,99.90
2019-05-22T00:35:36.883Z,99.90
2019-05-22T00:38:06.911Z,99.90
2019-05-22T00:40:42.574Z,99.90
2019-05-22T00:43:14.467Z,99.90
2019-05-22T00:45:45.959Z,99.90
2019-05-22T00:48:18.411Z,99.90
2019-05-22T00:51:15.015Z,99.90
2019-05-22T00:53:55.580Z,99.90
2019-05-22T00:56:38.837Z,99.90
2019-05-22T00:59:13.912Z,99.90
2019-05-22T01:01:47.702Z,99.90
2019-05-22T01:04:20.254Z,99.90
2019-05-22T01:06:51.118Z,99.90
2019-05-22T01:09:31.719Z,99.90
2019-05-22T01:12:02.623Z,99.90
2019-05-22T01:14:42.692Z,99.90
2019-05-22T01:17:04.330Z,99.90
2019-05-22T01:19:34.085Z,99.90
2019-05-22T01:22:05.205Z,99.90
2019-05-22T01:24:35.993Z,99.90
2019-05-22T01:27:05.329Z,99.90
2019-05-22T01:29:36.165Z,99.90
2019-05-22T01:32:16.921Z,99.90
2019-05-22T01:34:47.068Z,99.90
2019-05-22T01:37:18.642Z,99.90
2019-05-22T01:40:12.175Z,99.90
2019-05-22T01:42:42.381Z,99.90
2019-05-22T01:45:13.808Z,99.90
2019-05-22T01:47:57.617Z,99.90
2019-05-22T01:50:38.363Z,99.90
2019-05-22T01:53:08.414Z,99.90
2019-05-22T01:55:38.246Z,99.90
2019-05-22T01:58:08.186Z,99.90
2019-05-22T02:00:39.330Z,99.90
2019-05-22T02:03:10.409Z,99.90
2019-05-22T02:05:40.134Z,99.90
2019-05-22T02:08:09.372Z,99.90
2019-05-22T02:10:42.077Z,99.90
2019-05-22T02:13:13.450Z,99.90
2019-05-22T02:15:43.447Z,99.90
2019-05-22T02:18:18.010Z,99.90
2019-05-22T02:20:46.861Z,99.90
2019-05-22T02:23:16.887Z,99.90
2019-05-22T02:25:47.188Z,99.90
2019-05-22T02:28:16.485Z,99.90
2019-05-22T02:30:47.463Z,99.90
2019-05-22T02:33:20.623Z,99.90
2019-05-22T02:35:49.823Z,99.90
2019-05-22T02:38:18.683Z,99.90
2019-05-22T02:40:49.782Z,99.90
2019-05-22T02:43:21.538Z,99.90
2019-05-22T02:45:50.663Z,99.90
2019-05-22T02:48:21.143Z,99.90
2019-05-22T02:50:52.338Z,99.90
2019-05-22T02:53:21.831Z,99.90
2019-05-22T02:55:51.162Z,99.90
2019-05-22T02:58:20.987Z,99.90
2019-05-22T03:01:00.210Z,99.90
2019-05-22T03:03:31.155Z,99.90
2019-05-22T03:06:02.111Z,99.90
2019-05-22T03:09:02.416Z,99.90
2019-05-22T03:11:36.307Z,99.90
2019-05-22T03:14:06.966Z,99.90
2019-05-22T03:16:49.263Z,99.90
2019-05-22T03:19:26.099Z,99.90
2019-05-22T03:21:57.051Z,99.90
2019-05-22T03:24:26.783Z,99.90
2019-05-22T03:26:56.671Z,99.90
2019-05-22T03:29:38.858Z,99.90
2019-05-22T03:32:09.778Z,99.90
2019-05-22T03:34:39.456Z,99.90
2019-05-22T03:37:09.185Z,99.90
2019-05-22T03:39:38.741Z,99.90
2019-05-22T03:42:08.992Z,99.90
2019-05-22T03:44:39.225Z,99.90
2019-05-22T03:47:09.198Z,99.90
2019-05-22T03:49:38.464Z,99.90
2019-05-22T03:52:07.864Z,99.90
2019-05-22T03:54:38.028Z,99.90
2019-05-22T03:57:07.636Z,99.90
2019-05-22T03:59:38.253Z,99.90
2019-05-22T04:02:08.286Z,99.90
2019-05-22T04:04:40.935Z,99.90
2019-05-22T04:07:14.032Z,99.90
2019-05-22T04:09:45.123Z,99.90
2019-05-22T04:12:14.351Z,99.90
2019-05-22T04:14:43.914Z,99.90
2019-05-22T04:17:14.537Z,99.90
2019-05-22T04:19:49.967Z,99.90
2019-05-22T04:22:17.513Z,99.90
2019-05-22T04:24:48.897Z,99.90
2019-05-22T04:27:18.596Z,99.90
2019-05-22T04:29:49.783Z,99.90
2019-05-22T04:32:27.295Z,99.90
2019-05-22T04:34:57.022Z,99.90
2019-05-22T04:37:25.836Z,99.90
2019-05-22T04:39:59.622Z,99.90
2019-05-22T04:42:29.182Z,99.90
2019-05-22T04:45:09.906Z,99.90
2019-05-22T04:47:39.921Z,99.90
2019-05-22T04:50:10.682Z,99.90
2019-05-22T04:52:39.728Z,99.90
2019-05-22T04:55:11.145Z,99.90
2019-05-22T04:57:41.372Z,99.90
2019-05-22T05:00:11.622Z,99.90
2019-05-22T05:02:41.030Z,99.90
2019-05-22T05:05:11.655Z,99.90
2019-05-22T05:07:41.704Z,99.90
2019-05-22T05:10:11.798Z,99.90
2019-05-22T05:12:42.302Z,99.90
2019-05-22T05:15:11.484Z,99.90
2019-05-22T05:17:40.596Z,99.90
2019-05-22T05:20:21.705Z,99.90
2019-05-22T05:22:45.163Z,99.90
2019-05-22T05:25:14.921Z,99.90
2019-05-22T05:27:45.166Z,99.90
2019-05-22T05:30:15.148Z,99.90
2019-05-22T05:32:44.976Z,99.90
2019-05-22T05:35:15.830Z,99.90
2019-05-22T05:37:44.859Z,99.90
2019-05-22T05:40:27.390Z,99.90
2019-05-22T05:42:56.364Z,99.90
2019-05-22T05:45:27.109Z,99.90
2019-05-22T05:47:57.242Z,99.90
2019-05-22T05:50:38.885Z,99.90
2019-05-22T05:52:58.212Z,99.90
2019-05-22T05:55:30.144Z,99.90
2019-05-22T05:58:26.465Z,99.90
2019-05-22T06:00:57.726Z,99.90
2019-05-22T06:03:46.170Z,99.90
2019-05-22T06:07:00.652Z,99.90
2019-05-22T06:09:28.880Z,99.90
2019-05-22T06:11:59.259Z,99.90
2019-05-22T06:14:30.317Z,99.90
2019-05-22T06:17:43.728Z,99.90
2019-05-22T06:20:15.426Z,99.90
2019-05-22T06:23:03.335Z,99.90
2019-05-22T06:25:32.859Z,99.90
2019-05-22T06:28:03.366Z,99.90
2019-05-22T06:30:42.146Z,99.90
2019-05-22T06:33:30.435Z,99.90
2019-05-22T06:36:02.115Z,99.90
2019-05-22T06:38:54.964Z,99.90
2019-05-22T06:41:26.513Z,99.90
2019-05-22T06:44:38.831Z,99.90
2019-05-22T06:47:13.926Z,99.90
2019-05-22T06:49:45.096Z,99.90
2019-05-22T06:52:15.019Z,99.90
2019-05-22T06:54:44.648Z,99.90
2019-05-22T06:57:31.902Z,99.90
2019-05-22T07:00:14.717Z,99.90
2019-05-22T07:02:35.353Z,99.90
2019-05-22T07:05:09.158Z,99.90
2019-05-22T07:07:38.817Z,99.90
2019-05-22T07:10:08.945Z,99.90
2019-05-22T07:12:39.187Z,99.90
2019-05-22T07:15:41.702Z,99.90
2019-05-22T07:18:13.030Z,99.90
2019-05-22T07:20:42.617Z,99.90
2019-05-22T07:23:13.616Z,99.90
2019-05-22T07:25:44.318Z,99.90
2019-05-22T07:28:14.326Z,99.90
2019-05-22T07:30:44.289Z,99.90
2019-05-22T07:33:13.801Z,99.90
2019-05-22T07:35:56.708Z,99.90
2019-05-22T07:38:14.578Z,99.90
2019-05-22T07:40:44.511Z,99.90
2019-05-22T07:43:14.747Z,99.90
2019-05-22T07:45:44.365Z,99.90
2019-05-22T07:48:13.912Z,99.90
2019-05-22T07:50:48.677Z,99.90
2019-05-22T07:53:17.567Z,99.90
2019-05-22T07:55:47.781Z,99.90
2019-05-22T07:58:18.451Z,99.90
2019-05-22T08:00:53.813Z,99.90
2019-05-22T08:03:30.114Z,99.90
2019-05-22T08:05:59.830Z,99.90
2019-05-22T08:08:31.570Z,99.90
2019-05-22T08:11:01.492Z,99.90
2019-05-22T08:13:32.099Z,99.90
2019-05-22T08:16:01.041Z,99.90
2019-05-22T08:18:34.227Z,99.90
2019-05-22T08:21:03.422Z,99.90
2019-05-22T08:23:32.529Z,99.90
2019-05-22T08:26:01.910Z,99.90
2019-05-22T08:28:33.105Z,99.90
2019-05-22T08:31:02.737Z,99.90
2019-05-22T08:33:32.882Z,99.90
2019-05-22T08:36:02.878Z,99.90
2019-05-22T08:38:33.596Z,99.90
2019-05-22T08:41:05.459Z,99.90
2019-05-22T08:43:56.079Z,99.90
2019-05-22T08:46:07.162Z,99.90
2019-05-22T08:48:38.482Z,99.90
2019-05-22T08:51:09.447Z,99.90
2019-05-22T08:53:47.672Z,99.90
2019-05-22T08:56:10.223Z,99.90
2019-05-22T08:58:40.857Z,99.90
2019-05-22T09:01:11.773Z,99.90
2019-05-22T09:03:41.046Z,99.90
2019-05-22T09:06:10.292Z,99.90
2019-05-22T09:08:39.529Z,99.90
2019-05-22T09:11:09.094Z,99.90
2019-05-22T09:13:38.978Z,99.90
2019-05-22T09:16:09.289Z,99.90
2019-05-22T09:18:39.153Z,99.90
2019-05-22T09:21:08.998Z,99.90
2019-05-22T09:23:38.827Z,99.90
2019-05-22T09:26:07.938Z,99.90
2019-05-22T09:28:38.028Z,99.90
2019-05-22T09:31:07.290Z,99.90
2019-05-22T09:33:37.629Z,99.90
2019-05-22T09:36:08.418Z,99.90
2019-05-22T09:38:37.685Z,99.90
2019-05-22T09:41:06.718Z,99.90
2019-05-22T09:43:35.731Z,99.90
2019-05-22T09:46:05.245Z,99.90
2019-05-22T09:48:35.195Z,99.90
2019-05-22T09:51:04.198Z,99.90
2019-05-22T09:53:34.789Z,99.90
2019-05-22T09:56:04.670Z,99.90
2019-05-22T09:58:33.561Z,99.90
2019-05-22T10:01:03.376Z,99.90
2019-05-22T10:03:32.309Z,99.90
2019-05-22T10:06:01.308Z,99.90
2019-05-22T10:08:30.798Z,99.90
2019-05-22T10:11:00.113Z,99.90
2019-05-22T10:13:29.498Z,99.90
2019-05-22T10:15:59.021Z,99.90
2019-05-22T10:18:28.233Z,99.90
2019-05-22T10:20:57.238Z,99.90
2019-05-22T10:23:26.568Z,99.90
2019-05-22T10:25:55.759Z,99.90
2019-05-22T10:28:24.882Z,99.90
2019-05-22T10:30:55.238Z,99.90
2019-05-22T10:33:25.014Z,99.90
2019-05-22T10:35:54.725Z,99.90
2019-05-22T10:38:23.943Z,99.90
2019-05-22T10:40:53.041Z,99.90
2019-05-22T10:43:21.978Z,99.90
2019-05-22T10:45:51.134Z,99.90
2019-05-22T10:48:20.172Z,99.90
2019-05-22T10:50:49.427Z,99.90
2019-05-22T10:53:32.182Z,99.90
2019-05-22T10:55:49.683Z,99.90
2019-05-22T10:58:19.270Z,99.90
2019-05-22T11:00:48.213Z,99.90
2019-05-22T11:03:18.129Z,99.90
2019-05-22T11:06:03.823Z,99.90
2019-05-22T11:08:18.586Z,99.90
2019-05-22T11:10:48.494Z,99.90
2019-05-22T11:13:18.102Z,99.90
2019-05-22T11:15:47.122Z,99.90
2019-05-22T11:18:16.410Z,99.90
2019-05-22T11:20:45.219Z,99.90
2019-05-22T11:23:14.074Z,99.90
2019-05-22T11:25:43.223Z,99.90
2019-05-22T11:28:12.445Z,99.90
2019-05-22T11:30:41.637Z,99.90
2019-05-22T11:33:11.052Z,99.90
2019-05-22T11:35:40.889Z,93.30
2019-05-22T11:38:10.019Z,99.90
2019-05-22T11:40:40.538Z,99.90
2019-05-22T11:43:11.225Z,99.70
2019-05-22T11:45:40.584Z,99.90
2019-05-22T11:48:09.442Z,97.00
2019-05-22T11:50:39.631Z,94.10
2019-05-22T11:53:08.779Z,91.50
2019-05-22T11:55:44.923Z,81.20
2019-05-22T11:58:09.686Z,87.00
2019-05-22T12:00:38.554Z,93.00
2019-05-22T12:03:07.636Z,95.30
2019-05-22T12:05:36.716Z,86.00
2019-05-22T12:08:06.242Z,69.80
2019-05-22T12:10:36.106Z,47.80
2019-05-22T12:13:05.969Z,67.20
2019-05-22T12:15:37.107Z,60.70
2019-05-22T12:18:06.725Z,67.80
2019-05-22T12:20:35.751Z,75.00
2019-05-22T12:23:05.306Z,78.40
2019-05-22T12:25:34.419Z,82.20
2019-05-22T12:28:04.367Z,67.70
2019-05-22T12:30:33.338Z,57.50
2019-05-22T12:33:02.339Z,48.10
2019-05-22T12:35:32.286Z,60.70
2019-05-22T12:38:02.011Z,56.20
2019-05-22T12:40:33.990Z,64.70
2019-05-22T12:43:03.956Z,63.50
2019-05-22T12:45:34.169Z,70.20
2019-05-22T12:48:04.201Z,70.80
2019-05-22T12:50:33.815Z,73.00
2019-05-22T12:53:04.792Z,72.10
2019-05-22T12:55:33.876Z,74.00
2019-05-22T12:58:03.222Z,75.20
2019-05-22T13:00:33.413Z,78.60
2019-05-22T13:03:03.731Z,68.00
2019-05-22T13:05:35.445Z,67.20
2019-05-22T13:08:04.973Z,69.60
2019-05-22T13:10:35.170Z,70.80
2019-05-22T13:13:04.227Z,75.70
2019-05-22T13:15:35.511Z,72.30
2019-05-22T13:18:05.139Z,72.30
2019-05-22T13:20:42.542Z,76.70
2019-05-22T13:23:09.228Z,75.00
2019-05-22T13:25:41.075Z,74.90
2019-05-22T13:28:13.920Z,77.30
2019-05-22T13:30:44.597Z,78.30
2019-05-22T13:33:20.733Z,79.90
2019-05-22T13:35:51.157Z,82.10
2019-05-22T13:38:20.100Z,80.80
2019-05-22T13:40:52.877Z,78.60
2019-05-22T13:43:22.174Z,73.10
2019-05-22T13:45:51.264Z,78.50
2019-05-22T13:48:20.260Z,78.50
2019-05-22T13:50:49.802Z,71.50
2019-05-22T13:53:20.993Z,61.30
2019-05-22T13:55:49.889Z,75.60
2019-05-22T13:58:21.544Z,73.70
2019-05-22T14:00:50.808Z,74.00
2019-05-22T14:03:20.675Z,67.20
2019-05-22T14:05:51.242Z,74.60
2019-05-22T14:08:20.949Z,76.70
2019-05-22T14:10:50.591Z,76.50
2019-05-22T14:13:20.717Z,78.60
2019-05-22T14:15:56.075Z,74.60
2019-05-22T14:18:20.449Z,73.70
2019-05-22T14:20:49.894Z,75.00
2019-05-22T14:23:18.925Z,73.90
2019-05-22T14:25:48.466Z,75.50
2019-05-22T14:28:17.701Z,72.70
2019-05-22T14:30:46.725Z,74.60
2019-05-22T14:33:16.146Z,75.60
2019-05-22T14:35:48.897Z,74.00
2019-05-22T14:38:16.407Z,73.70
2019-05-22T14:40:45.358Z,79.00
2019-05-22T14:43:14.241Z,76.40
2019-05-22T14:45:43.718Z,77.20
2019-05-22T14:48:13.804Z,76.80
2019-05-22T14:50:43.221Z,76.00
2019-05-22T14:53:12.674Z,74.00
2019-05-22T14:55:42.334Z,77.60
2019-05-22T14:58:12.961Z,76.10
2019-05-22T15:00:42.511Z,76.20
2019-05-22T15:03:11.982Z,64.50
2019-05-22T15:05:40.989Z,73.80
2019-05-22T15:08:09.862Z,74.30
2019-05-22T15:10:39.098Z,76.20
2019-05-22T15:13:10.021Z,76.30
2019-05-22T15:15:40.430Z,75.40
2019-05-22T15:18:11.106Z,77.20
2019-05-22T15:21:11.607Z,71.70
2019-05-22T15:23:41.365Z,72.70
2019-05-22T15:26:10.305Z,72.30
2019-05-22T15:28:40.337Z,72.50
2019-05-22T15:31:09.522Z,74.50
2019-05-22T15:33:38.726Z,78.40
2019-05-22T15:36:10.415Z,78.60
2019-05-22T15:38:42.096Z,78.90
2019-05-22T15:41:12.363Z,76.90
2019-05-22T15:43:43.627Z,79.90
2019-05-22T15:46:15.341Z,80.20
2019-05-22T15:48:47.347Z,81.70
2019-05-22T15:51:21.058Z,78.20
2019-05-22T15:53:50.129Z,76.30
2019-05-22T15:56:20.287Z,79.60
2019-05-22T15:58:52.159Z,76.30
2019-05-22T16:01:25.429Z,78.60
2019-05-22T16:03:56.678Z,78.10
2019-05-22T16:06:27.799Z,75.40
2019-05-22T16:08:59.074Z,72.20
2019-05-22T16:11:29.681Z,73.50
2019-05-22T16:14:00.890Z,74.10
2019-05-22T16:16:30.222Z,73.10
2019-05-22T16:19:04.308Z,71.50
2019-05-22T16:21:34.900Z,76.00
2019-05-22T16:24:05.244Z,72.80
2019-05-22T16:26:34.406Z,71.20
2019-05-22T16:29:04.325Z,73.80
2019-05-22T16:31:34.864Z,73.70
2019-05-22T16:34:04.926Z,75.00
2019-05-22T16:36:34.381Z,77.80
2019-05-22T16:39:04.841Z,75.00
2019-05-22T16:41:34.754Z,77.30
2019-05-22T16:44:04.281Z,70.70
2019-05-22T16:46:33.628Z,75.10
2019-05-22T16:49:03.623Z,75.90
2019-05-22T16:51:33.366Z,78.40
2019-05-22T16:54:06.056Z,79.10
2019-05-22T16:56:35.802Z,78.20
2019-05-22T16:59:05.758Z,77.60
2019-05-22T17:01:56.343Z,74.90
2019-05-22T17:04:06.815Z,79.20
2019-05-22T17:06:37.011Z,78.30
2019-05-22T17:09:25.103Z,79.30
2019-05-22T17:11:55.189Z,80.40
2019-05-22T17:14:24.886Z,80.70
2019-05-22T17:16:53.820Z,82.80
2019-05-22T17:19:27.023Z,81.20
2019-05-22T17:21:53.714Z,79.50
2019-05-22T17:24:22.872Z,79.20
2019-05-22T17:26:53.473Z,83.10
2019-05-22T17:29:23.020Z,83.20
2019-05-22T17:31:52.406Z,81.70
2019-05-22T17:34:32.112Z,82.50
2019-05-22T17:37:15.834Z,83.90
2019-05-22T17:39:48.798Z,83.30
2019-05-22T17:42:21.289Z,80.00
2019-05-22T17:44:52.870Z,85.20
2019-05-22T17:47:24.831Z,86.40
2019-05-22T17:49:54.455Z,86.00
2019-05-22T17:52:24.359Z,89.50
2019-05-22T17:54:53.502Z,89.30
2019-05-22T17:57:24.270Z,88.80
2019-05-22T17:59:53.517Z,90.50
2019-05-22T18:02:26.103Z,91.40
2019-05-22T18:04:55.594Z,91.10
2019-05-22T18:07:25.541Z,92.10
2019-05-22T18:09:54.925Z,92.70
2019-05-22T18:12:24.517Z,93.40
2019-05-22T18:14:53.859Z,94.00
2019-05-22T18:17:23.413Z,93.90
2019-05-22T18:19:52.290Z,94.70
2019-05-22T18:22:21.221Z,94.40
2019-05-22T18:24:50.181Z,95.40
2019-05-22T18:27:19.385Z,96.40
2019-05-22T18:29:48.159Z,96.70
2019-05-22T18:32:17.044Z,97.10
2019-05-22T18:34:45.961Z,97.50
2019-05-22T18:37:15.126Z,98.10
2019-05-22T18:39:44.252Z,98.80
2019-05-22T18:42:13.207Z,99.40
2019-05-22T18:44:41.974Z,99.90
2019-05-22T18:47:11.955Z,99.90
2019-05-22T18:49:41.071Z,99.90
2019-05-22T18:52:10.113Z,99.90
2019-05-22T18:54:38.919Z,99.90
2019-05-22T18:57:07.854Z,99.90
2019-05-22T18:59:37.009Z,99.90
2019-05-22T19:02:06.891Z,99.90
2019-05-22T19:04:35.865Z,99.90
2019-05-22T19:07:05.013Z,99.90
2019-05-22T19:09:34.152Z,99.90
2019-05-22T19:12:03.478Z,99.90
2019-05-22T19:14:32.406Z,99.90
2019-05-22T19:17:02.051Z,99.90
2019-05-22T19:19:31.018Z,99.90
2019-05-22T19:21:59.993Z,99.90
2019-05-22T19:24:29.126Z,99.90
2019-05-22T19:26:58.168Z,99.90
2019-05-22T19:29:27.138Z,99.90
2019-05-22T19:31:55.991Z,99.90
2019-05-22T19:34:25.351Z,99.90
2019-05-22T19:36:54.637Z,99.90
2019-05-22T19:39:24.622Z,99.90
2019-05-22T19:42:02.185Z,99.90
2019-05-22T19:44:24.781Z,99.90
2019-05-22T19:46:53.690Z,99.90
2019-05-22T19:49:22.558Z,99.90
2019-05-22T19:51:52.369Z,99.90
2019-05-22T19:54:21.607Z,99.90
2019-05-22T19:56:50.710Z,99.90
2019-05-22T19:59:19.994Z,99.90
2019-05-22T20:01:50.015Z,99.90
2019-05-22T20:04:19.430Z,99.90
2019-05-22T20:06:48.469Z,99.90
2019-05-22T20:09:19.290Z,99.90
2019-05-22T20:11:48.198Z,99.90
2019-05-22T20:14:17.919Z,99.90
2019-05-22T20:16:46.922Z,99.90
2019-05-22T20:19:15.837Z,99.90
2019-05-22T20:21:45.306Z,99.90
2019-05-22T20:24:14.357Z,99.90
2019-05-22T20:26:43.402Z,99.90
2019-05-22T20:29:15.097Z,99.90
2019-05-22T20:31:44.142Z,99.90
2019-05-22T20:34:13.195Z,99.90
2019-05-22T20:36:42.903Z,99.90
2019-05-22T20:39:14.591Z,99.90
2019-05-22T20:41:43.509Z,99.90
2019-05-22T20:44:12.521Z,99.90
2019-05-22T20:46:43.625Z,99.90
2019-05-22T20:49:14.226Z,99.90
2019-05-22T20:51:43.738Z,99.90
2019-05-22T20:54:15.126Z,99.90
2019-05-22T20:56:46.772Z,99.90
2019-05-22T20:59:15.868Z,99.90
2019-05-22T21:01:46.276Z,99.90
2019-05-22T21:04:17.115Z,99.90
2019-05-22T21:06:59.957Z,99.90
2019-05-22T21:09:29.574Z,99.90
2019-05-22T21:11:58.701Z,99.90
2019-05-22T21:14:28.523Z,99.90
2019-05-22T21:16:57.909Z,99.90
2019-05-22T21:19:27.482Z,99.90
2019-05-22T21:21:57.981Z,99.90
2019-05-22T21:24:27.679Z,99.90
2019-05-22T21:26:57.103Z,99.90
2019-05-22T21:29:25.962Z,99.90
2019-05-22T21:31:55.090Z,99.90
2019-05-22T21:34:24.811Z,99.90
2019-05-22T21:36:54.122Z,99.90
2019-05-22T21:39:23.418Z,99.90
2019-05-22T21:41:52.666Z,99.90
2019-05-22T21:44:21.534Z,99.90
2019-05-22T21:46:51.655Z,99.90
2019-05-22T21:49:21.019Z,99.90
2019-05-22T21:51:50.105Z,99.90
2019-05-22T21:54:19.526Z,99.90
2019-05-22T21:56:48.639Z,99.90
2019-05-22T21:59:17.890Z,99.90
2019-05-22T22:01:52.428Z,99.90
2019-05-22T22:04:26.561Z,99.90
2019-05-22T22:06:56.376Z,99.90
2019-05-22T22:09:26.978Z,99.90
2019-05-22T22:11:57.116Z,99.90
2019-05-22T22:14:26.529Z,99.90
2019-05-22T22:16:56.353Z,99.90
2019-05-22T22:19:25.941Z,99.90
2019-05-22T22:21:55.370Z,99.90
2019-05-22T22:24:24.462Z,99.90
2019-05-22T22:26:55.360Z,99.90
2019-05-22T22:29:24.386Z,99.90
2019-05-22T22:31:54.966Z,99.90
2019-05-22T22:34:34.842Z,99.90
2019-05-22T22:37:04.090Z,99.90
2019-05-22T22:39:35.016Z,99.90
2019-05-22T22:42:04.325Z,99.90
2019-05-22T22:44:35.602Z,99.90
2019-05-22T22:47:13.731Z,99.90
2019-05-22T22:49:44.159Z,99.90
2019-05-22T22:52:14.902Z,99.90
2019-05-22T22:54:45.310Z,99.90
2019-05-22T22:57:14.471Z,99.90
2019-05-22T22:59:43.324Z,99.90
2019-05-22T23:02:14.227Z,99.90
2019-05-22T23:04:44.945Z,99.90
2019-05-22T23:07:16.161Z,99.90
2019-05-22T23:09:44.988Z,99.90
2019-05-22T23:12:16.030Z,99.90
2019-05-22T23:14:50.344Z,99.90
2019-05-22T23:17:20.383Z,99.90
2019-05-22T23:19:47.818Z,99.90
2019-05-22T23:22:34.503Z,99.90
2019-05-22T23:25:06.214Z,99.90
2019-05-22T23:27:36.402Z,99.90
2019-05-22T23:30:09.081Z,99.90
2019-05-22T23:32:38.863Z,99.90
2019-05-22T23:35:10.116Z,99.90
2019-05-22T23:37:40.542Z,99.90
2019-05-22T23:40:13.918Z,99.90
2019-05-22T23:42:43.432Z,99.90
2019-05-22T23:45:15.878Z,99.90
2019-05-22T23:48:02.309Z,99.90
2019-05-22T23:50:35.183Z,99.90
2019-05-22T23:53:05.203Z,99.90
2019-05-22T23:55:35.218Z,99.90
2019-05-22T23:58:05.794Z,99.90
